createdAt,value
2016-12-26T00:00:41.181Z,0
2016-12-26T00:01:41.181Z,0
2016-12-26T00:02:41.165Z,0
2016-12-26T00:03:41.173Z,0
2016-12-26T00:04:40.838Z,0
2016-12-26T00:05:40.829Z,0
2016-12-26T00:06:40.830Z,0
2016-12-26T00:07:41.154Z,0
2016-12-26T00:08:41.149Z,0
2016-12-26T00:09:41.141Z,0
2016-12-26T00:10:41.134Z,0
2016-12-26T00:11:41.130Z,0
2016-12-26T00:12:41.130Z,0
2016-12-26T00:13:41.130Z,0
2016-12-26T00:14:40.802Z,0
2016-12-26T00:15:40.786Z,0
2016-12-26T00:16:40.458Z,0
2016-12-26T00:17:40.454Z,0
2016-12-26T00:18:40.774Z,0
2016-12-26T00:19:40.770Z,0
2016-12-26T00:20:40.766Z,0
2016-12-26T00:21:41.090Z,0
2016-12-26T00:22:41.090Z,0
2016-12-26T00:23:41.234Z,0
2016-12-26T00:24:40.426Z,0
2016-12-26T00:25:41.102Z,0
2016-12-26T00:26:41.066Z,0
2016-12-26T00:27:41.068Z,0
2016-12-26T00:28:40.411Z,0
2016-12-26T00:29:40.395Z,0
2016-12-26T00:30:40.731Z,0
2016-12-26T00:31:40.395Z,0
2016-12-26T00:32:40.387Z,0
2016-12-26T00:33:41.031Z,0
2016-12-26T00:34:40.707Z,0
2016-12-26T00:35:41.031Z,0
2016-12-26T00:36:41.027Z,0
2016-12-26T00:37:40.696Z,0
2016-12-26T00:38:40.691Z,0
2016-12-26T00:39:41.003Z,0
2016-12-26T00:40:40.675Z,0
2016-12-26T00:41:40.343Z,0
2016-12-26T00:42:40.675Z,0
2016-12-26T00:43:40.991Z,0
2016-12-26T00:44:40.335Z,0
2016-12-26T00:45:41.012Z,0
2016-12-26T00:46:40.983Z,0
2016-12-26T00:47:40.651Z,0
2016-12-26T00:48:40.647Z,0
2016-12-26T00:49:40.308Z,0
2016-12-26T00:50:40.639Z,0
2016-12-26T00:51:40.303Z,0
2016-12-26T00:52:40.959Z,0
2016-12-26T00:53:40.624Z,0
2016-12-26T00:54:40.620Z,0
2016-12-26T00:55:40.948Z,0
2016-12-26T00:56:40.280Z,0
2016-12-26T00:57:40.607Z,0
2016-12-26T00:58:40.603Z,0
2016-12-26T00:59:40.276Z,0
2016-12-26T01:00:40.592Z,0
2016-12-26T01:01:40.255Z,0
2016-12-26T01:02:40.584Z,0
2016-12-26T01:03:40.576Z,0
2016-12-26T01:04:40.904Z,0
2016-12-26T01:05:40.576Z,0
2016-12-26T01:06:40.565Z,0
2016-12-26T01:07:40.232Z,0
2016-12-26T01:08:39.908Z,0
2016-12-26T01:09:40.881Z,0
2016-12-26T01:10:40.548Z,0
2016-12-26T01:11:40.872Z,0
2016-12-26T01:12:40.539Z,0
2016-12-26T01:13:40.540Z,0
2016-12-26T01:14:40.204Z,0
2016-12-26T01:15:40.532Z,0
2016-12-26T01:16:40.528Z,0
2016-12-26T01:17:40.846Z,0
2016-12-26T01:18:40.508Z,0
2016-12-26T01:19:40.833Z,0
2016-12-26T01:20:40.509Z,0
2016-12-26T01:21:40.833Z,0
2016-12-26T01:22:40.500Z,0
2016-12-26T01:23:40.496Z,0
2016-12-26T01:24:40.813Z,0
2016-12-26T01:25:39.832Z,0
2016-12-26T01:26:40.813Z,0
2016-12-26T01:27:40.474Z,0
2016-12-26T01:28:39.808Z,0
2016-12-26T01:29:40.800Z,0
2016-12-26T01:30:40.793Z,0
2016-12-26T01:31:40.461Z,0
2016-12-26T01:32:40.809Z,0
2016-12-26T01:33:40.445Z,0
2016-12-26T01:34:40.445Z,0
2016-12-26T01:35:40.765Z,0
2016-12-26T01:36:40.105Z,0
2016-12-26T01:37:40.428Z,0
2016-12-26T01:38:40.748Z,0
2016-12-26T01:39:40.417Z,0
2016-12-26T01:40:40.421Z,0
2016-12-26T01:41:40.085Z,0
2016-12-26T01:42:40.405Z,0
2016-12-26T01:43:40.437Z,0
2016-12-26T01:44:40.553Z,0
2016-12-26T01:45:40.073Z,0
2016-12-26T01:46:40.389Z,0
2016-12-26T01:47:40.713Z,0
2016-12-26T01:48:40.385Z,0
2016-12-26T01:49:40.377Z,0
2016-12-26T01:50:40.717Z,0
2016-12-26T01:51:40.369Z,0
2016-12-26T01:52:40.682Z,0
2016-12-26T01:53:40.717Z,0
2016-12-26T01:54:40.685Z,0
2016-12-26T01:55:40.673Z,0
2016-12-26T01:56:40.369Z,0
2016-12-26T01:57:40.661Z,0
2016-12-26T01:58:40.657Z,0
2016-12-26T01:59:40.317Z,0
2016-12-26T02:00:40.325Z,0
2016-12-26T02:01:40.649Z,0
2016-12-26T02:02:40.321Z,0
2016-12-26T02:03:40.314Z,0
2016-12-26T02:04:40.649Z,0
2016-12-26T02:05:39.998Z,0
2016-12-26T02:06:40.294Z,0
2016-12-26T02:07:40.626Z,0
2016-12-26T02:08:40.614Z,0
2016-12-26T02:09:40.609Z,0
2016-12-26T02:10:40.614Z,0
2016-12-26T02:11:40.274Z,0
2016-12-26T02:12:40.270Z,0
2016-12-26T02:13:40.290Z,0
2016-12-26T02:14:40.594Z,0
2016-12-26T02:15:40.258Z,0
2016-12-26T02:16:39.930Z,0
2016-12-26T02:17:40.262Z,0
2016-12-26T02:18:40.566Z,0
2016-12-26T02:19:39.906Z,0
2016-12-26T02:20:40.234Z,0
2016-12-26T02:21:40.226Z,0
2016-12-26T02:22:40.222Z,0
2016-12-26T02:23:40.554Z,0
2016-12-26T02:24:40.542Z,0
2016-12-26T02:25:40.206Z,0
2016-12-26T02:26:40.206Z,0
2016-12-26T02:27:39.870Z,0
2016-12-26T02:28:40.194Z,0
2016-12-26T02:29:40.190Z,0
2016-12-26T02:30:40.185Z,0
2016-12-26T02:31:39.849Z,0
2016-12-26T02:32:40.505Z,0
2016-12-26T02:33:40.493Z,0
2016-12-26T02:34:40.165Z,0
2016-12-26T02:35:40.490Z,0
2016-12-26T02:36:40.485Z,0
2016-12-26T02:37:39.829Z,0
2016-12-26T02:38:40.481Z,0
2016-12-26T02:39:40.148Z,0
2016-12-26T02:40:40.464Z,0
2016-12-26T02:41:40.140Z,0
2016-12-26T02:42:39.808Z,0
2016-12-26T02:43:40.133Z,0
2016-12-26T02:44:40.448Z,0
2016-12-26T02:45:39.792Z,0
2016-12-26T02:46:40.116Z,0
2016-12-26T02:47:40.108Z,0
2016-12-26T02:48:40.432Z,0
2016-12-26T02:49:40.424Z,0
2016-12-26T02:50:39.760Z,0
2016-12-26T02:51:40.096Z,0
2016-12-26T02:52:40.080Z,0
2016-12-26T02:53:40.079Z,0
2016-12-26T02:54:39.751Z,0
2016-12-26T02:55:39.743Z,0
2016-12-26T02:56:40.055Z,0
2016-12-26T02:57:40.055Z,0
2016-12-26T02:58:40.059Z,0
2016-12-26T02:59:40.383Z,0
2016-12-26T03:00:40.047Z,0
2016-12-26T03:01:40.371Z,0
2016-12-26T03:02:40.035Z,0
2016-12-26T03:03:40.023Z,0
2016-12-26T03:04:40.359Z,0
2016-12-26T03:05:40.019Z,0
2016-12-26T03:06:40.347Z,0
2016-12-26T03:07:39.691Z,0
2016-12-26T03:08:40.011Z,0
2016-12-26T03:09:40.327Z,0
2016-12-26T03:10:40.331Z,0
2016-12-26T03:11:40.315Z,0
2016-12-26T03:12:39.655Z,0
2016-12-26T03:13:39.991Z,0
2016-12-26T03:14:39.639Z,0
2016-12-26T03:15:39.971Z,0
2016-12-26T03:16:39.971Z,0
2016-12-26T03:17:39.971Z,0
2016-12-26T03:18:39.967Z,0
2016-12-26T03:19:40.287Z,0
2016-12-26T03:20:40.279Z,0
2016-12-26T03:21:39.943Z,0
2016-12-26T03:22:40.267Z,0
2016-12-26T03:23:39.607Z,0
2016-12-26T03:24:39.936Z,0
2016-12-26T03:25:39.591Z,0
2016-12-26T03:26:39.919Z,0
2016-12-26T03:27:39.587Z,0
2016-12-26T03:28:39.915Z,0
2016-12-26T03:29:39.619Z,0
2016-12-26T03:30:40.235Z,0
2016-12-26T03:31:40.231Z,0
2016-12-26T03:32:40.227Z,0
2016-12-26T03:33:39.891Z,0
2016-12-26T03:34:40.211Z,0
2016-12-26T03:35:40.207Z,0
2016-12-26T03:36:39.879Z,0
2016-12-26T03:37:39.871Z,0
2016-12-26T03:38:39.864Z,0
2016-12-26T03:39:40.187Z,0
2016-12-26T03:40:39.872Z,0
2016-12-26T03:41:39.524Z,0
2016-12-26T03:42:39.840Z,0
2016-12-26T03:43:40.176Z,0
2016-12-26T03:44:39.836Z,0
2016-12-26T03:45:39.844Z,0
2016-12-26T03:46:40.160Z,0
2016-12-26T03:47:40.153Z,0
2016-12-26T03:48:39.820Z,0
2016-12-26T03:49:39.492Z,0
2016-12-26T03:50:39.484Z,0
2016-12-26T03:51:39.804Z,0
2016-12-26T03:52:40.128Z,0
2016-12-26T03:53:39.797Z,0
2016-12-26T03:54:39.801Z,0
2016-12-26T03:55:39.465Z,0
2016-12-26T03:56:39.781Z,0
2016-12-26T03:57:39.781Z,0
2016-12-26T03:58:40.101Z,0
2016-12-26T03:59:39.445Z,0
2016-12-26T04:00:40.089Z,0
2016-12-26T04:01:39.761Z,0
2016-12-26T04:02:40.082Z,0
2016-12-26T04:03:40.082Z,0
2016-12-26T04:04:40.070Z,0
2016-12-26T04:05:39.734Z,0
2016-12-26T04:06:39.734Z,0
2016-12-26T04:07:39.402Z,0
2016-12-26T04:08:39.726Z,0
2016-12-26T04:09:40.050Z,0
2016-12-26T04:10:39.722Z,0
2016-12-26T04:11:40.038Z,0
2016-12-26T04:12:40.030Z,0
2016-12-26T04:13:40.040Z,0
2016-12-26T04:14:40.023Z,0
2016-12-26T04:15:40.026Z,0
2016-12-26T04:16:40.019Z,0
2016-12-26T04:17:40.010Z,0
2016-12-26T04:18:40.015Z,0
2016-12-26T04:19:39.671Z,0
2016-12-26T04:20:39.663Z,0
2016-12-26T04:21:39.327Z,0
2016-12-26T04:22:39.663Z,0
2016-12-26T04:23:39.323Z,0
2016-12-26T04:24:39.983Z,0
2016-12-26T04:25:39.967Z,0
2016-12-26T04:26:39.627Z,0
2016-12-26T04:27:39.959Z,0
2016-12-26T04:28:39.315Z,0
2016-12-26T04:29:39.623Z,0
2016-12-26T04:30:39.295Z,0
2016-12-26T04:31:39.616Z,0
2016-12-26T04:32:39.608Z,0
2016-12-26T04:33:39.604Z,0
2016-12-26T04:34:39.934Z,0
2016-12-26T04:35:39.272Z,0
2016-12-26T04:36:39.592Z,0
2016-12-26T04:37:39.912Z,0
2016-12-26T04:38:39.580Z,0
2016-12-26T04:39:39.900Z,0
2016-12-26T04:40:39.576Z,0
2016-12-26T04:41:39.237Z,0
2016-12-26T04:42:39.561Z,0
2016-12-26T04:43:39.560Z,0
2016-12-26T04:44:39.565Z,0
2016-12-26T04:45:39.549Z,0
2016-12-26T04:46:39.541Z,0
2016-12-26T04:47:39.541Z,0
2016-12-26T04:48:39.537Z,0
2016-12-26T04:49:39.525Z,0
2016-12-26T04:50:39.518Z,0
2016-12-26T04:51:39.521Z,0
2016-12-26T04:52:39.843Z,0
2016-12-26T04:53:39.523Z,0
2016-12-26T04:54:39.178Z,0
2016-12-26T04:55:39.490Z,0
2016-12-26T04:56:39.822Z,0
2016-12-26T04:57:39.818Z,0
2016-12-26T04:58:39.822Z,0
2016-12-26T04:59:38.822Z,0
2016-12-26T05:00:39.474Z,0
2016-12-26T05:01:39.478Z,0
2016-12-26T05:02:39.139Z,0
2016-12-26T05:03:39.467Z,0
2016-12-26T05:04:39.127Z,0
2016-12-26T05:05:39.459Z,0
2016-12-26T05:06:39.122Z,0
2016-12-26T05:07:39.443Z,0
2016-12-26T05:08:39.443Z,0
2016-12-26T05:09:39.763Z,0
2016-12-26T05:10:39.103Z,0
2016-12-26T05:11:39.763Z,0
2016-12-26T05:12:39.751Z,0
2016-12-26T05:13:39.745Z,0
2016-12-26T05:14:39.416Z,0
2016-12-26T05:15:39.412Z,0
2016-12-26T05:16:39.400Z,0
2016-12-26T05:17:39.736Z,0
2016-12-26T05:18:39.717Z,0
2016-12-26T05:19:39.076Z,0
2016-12-26T05:20:39.716Z,0
2016-12-26T05:21:39.376Z,0
2016-12-26T05:22:39.404Z,0
2016-12-26T05:23:39.372Z,0
2016-12-26T05:24:39.361Z,0
2016-12-26T05:25:38.704Z,0
2016-12-26T05:26:39.352Z,0
2016-12-26T05:27:39.348Z,0
2016-12-26T05:28:39.009Z,0
2016-12-26T05:29:39.341Z,0
2016-12-26T05:30:39.337Z,0
2016-12-26T05:31:38.677Z,0
2016-12-26T05:32:39.653Z,0
2016-12-26T05:33:38.997Z,0
2016-12-26T05:34:39.305Z,0
2016-12-26T05:35:39.641Z,0
2016-12-26T05:36:39.005Z,0
2016-12-26T05:37:38.973Z,0
2016-12-26T05:38:39.618Z,0
2016-12-26T05:39:39.641Z,0
2016-12-26T05:40:39.278Z,0
2016-12-26T05:41:39.606Z,0
2016-12-26T05:42:39.269Z,0
2016-12-26T05:43:39.274Z,0
2016-12-26T05:44:39.622Z,0
2016-12-26T05:45:39.262Z,0
2016-12-26T05:46:39.262Z,0
2016-12-26T05:47:39.254Z,0
2016-12-26T05:48:39.574Z,0
2016-12-26T05:49:39.570Z,0
2016-12-26T05:50:39.234Z,0
2016-12-26T05:51:39.555Z,0
2016-12-26T05:52:39.227Z,0
2016-12-26T05:53:39.212Z,0
2016-12-26T05:54:39.211Z,0
2016-12-26T05:55:39.535Z,0
2016-12-26T05:56:39.534Z,0
2016-12-26T05:57:39.535Z,0
2016-12-26T05:58:39.196Z,0
2016-12-26T05:59:39.187Z,0
2016-12-26T06:00:39.515Z,0
2016-12-26T06:01:38.859Z,0
2016-12-26T06:02:39.539Z,0
2016-12-26T06:03:39.171Z,0
2016-12-26T06:04:39.499Z,0
2016-12-26T06:05:38.835Z,0
2016-12-26T06:06:39.475Z,0
2016-12-26T06:07:38.823Z,0
2016-12-26T06:08:39.155Z,0
2016-12-26T06:09:39.472Z,0
2016-12-26T06:10:38.963Z,0
2016-12-26T06:11:39.132Z,0
2016-12-26T06:12:39.456Z,0
2016-12-26T06:13:39.455Z,0
2016-12-26T06:14:38.795Z,0
2016-12-26T06:15:39.111Z,0
2016-12-26T06:16:39.477Z,0
2016-12-26T06:17:38.774Z,0
2016-12-26T06:18:38.771Z,0
2016-12-26T06:19:38.772Z,0
2016-12-26T06:20:39.420Z,0
2016-12-26T06:21:38.776Z,0
2016-12-26T06:22:39.416Z,0
2016-12-26T06:23:39.108Z,0
2016-12-26T06:24:39.392Z,0
2016-12-26T06:25:39.072Z,0
2016-12-26T06:26:39.056Z,0
2016-12-26T06:27:38.732Z,0
2016-12-26T06:28:38.712Z,0
2016-12-26T06:29:39.040Z,0
2016-12-26T06:30:39.372Z,0
2016-12-26T06:31:39.024Z,0
2016-12-26T06:32:39.353Z,0
2016-12-26T06:33:39.356Z,0
2016-12-26T06:34:39.020Z,4
2016-12-26T06:35:39.340Z,4
2016-12-26T06:36:39.008Z,0
2016-12-26T06:37:39.000Z,4
2016-12-26T06:38:39.008Z,4
2016-12-26T06:39:39.352Z,4
2016-12-26T06:40:38.980Z,4
2016-12-26T06:41:38.652Z,4
2016-12-26T06:42:38.977Z,8
2016-12-26T06:43:38.976Z,8
2016-12-26T06:44:38.964Z,8
2016-12-26T06:45:39.297Z,12
2016-12-26T06:46:38.960Z,12
2016-12-26T06:47:39.288Z,12
2016-12-26T06:48:38.952Z,16
2016-12-26T06:49:39.277Z,20
2016-12-26T06:50:38.940Z,20
2016-12-26T06:51:39.257Z,24
2016-12-26T06:52:39.260Z,28
2016-12-26T06:53:39.257Z,32
2016-12-26T06:54:39.245Z,40
2016-12-26T06:55:39.245Z,48
2016-12-26T06:56:38.908Z,56
2016-12-26T06:57:38.569Z,64
2016-12-26T06:58:38.897Z,72
2016-12-26T06:59:39.217Z,80
2016-12-26T07:00:39.217Z,92
2016-12-26T07:01:39.217Z,104
2016-12-26T07:02:38.872Z,112
2016-12-26T07:03:38.878Z,124
2016-12-26T07:04:38.209Z,136
2016-12-26T07:05:38.865Z,148
2016-12-26T07:06:38.853Z,160
2016-12-26T07:07:39.181Z,172
2016-12-26T07:08:39.177Z,184
2016-12-26T07:09:39.173Z,196
2016-12-26T07:10:39.169Z,208
2016-12-26T07:11:39.165Z,224
2016-12-26T07:12:38.505Z,232
2016-12-26T07:13:38.821Z,248
2016-12-26T07:14:39.153Z,260
2016-12-26T07:15:38.813Z,280
2016-12-26T07:16:38.805Z,300
2016-12-26T07:17:39.133Z,320
2016-12-26T07:18:39.133Z,344
2016-12-26T07:19:39.125Z,368
2016-12-26T07:20:38.797Z,396
2016-12-26T07:21:38.865Z,420
2016-12-26T07:22:39.105Z,444
2016-12-26T07:23:38.765Z,472
2016-12-26T07:24:38.765Z,504
2016-12-26T07:25:38.769Z,532
2016-12-26T07:26:39.109Z,556
2016-12-26T07:27:38.753Z,584
2016-12-26T07:28:38.749Z,612
2016-12-26T07:29:38.742Z,640
2016-12-26T07:30:38.405Z,668
2016-12-26T07:31:38.729Z,696
2016-12-26T07:32:39.053Z,728
2016-12-26T07:33:39.053Z,756
2016-12-26T07:34:38.394Z,780
2016-12-26T07:35:38.393Z,804
2016-12-26T07:36:38.709Z,836
2016-12-26T07:37:38.709Z,864
2016-12-26T07:38:39.021Z,892
2016-12-26T07:39:39.021Z,920
2016-12-26T07:40:38.369Z,948
2016-12-26T07:41:38.692Z,964
2016-12-26T07:42:38.685Z,980
2016-12-26T07:43:38.338Z,996
2016-12-26T07:44:38.661Z,1004
2016-12-26T07:45:38.993Z,1020
2016-12-26T07:46:38.663Z,1052
2016-12-26T07:47:38.357Z,1068
2016-12-26T07:48:38.649Z,1076
2016-12-26T07:49:38.974Z,1116
2016-12-26T07:50:38.645Z,1132
2016-12-26T07:51:38.310Z,1148
2016-12-26T07:52:38.665Z,1188
2016-12-26T07:53:38.622Z,1228
2016-12-26T07:54:38.618Z,1252
2016-12-26T07:55:38.294Z,1272
2016-12-26T07:56:38.941Z,1292
2016-12-26T07:57:38.606Z,1292
2016-12-26T07:58:38.930Z,1292
2016-12-26T07:59:38.934Z,1304
2016-12-26T08:00:38.930Z,1348
2016-12-26T08:01:38.594Z,1376
2016-12-26T08:02:38.925Z,1412
2016-12-26T08:03:38.578Z,1460
2016-12-26T08:04:38.906Z,1492
2016-12-26T08:05:38.898Z,1536
2016-12-26T08:06:38.566Z,1564
2016-12-26T08:07:38.890Z,1592
2016-12-26T08:08:38.558Z,1620
2016-12-26T08:09:38.222Z,1648
2016-12-26T08:10:38.874Z,1672
2016-12-26T08:11:38.550Z,1696
2016-12-26T08:12:38.866Z,1712
2016-12-26T08:13:38.204Z,1736
2016-12-26T08:14:38.526Z,1760
2016-12-26T08:15:38.526Z,1772
2016-12-26T08:16:37.858Z,1792
2016-12-26T08:17:38.518Z,1824
2016-12-26T08:18:38.506Z,1868
2016-12-26T08:19:38.506Z,1912
2016-12-26T08:20:38.179Z,1952
2016-12-26T08:21:38.498Z,1992
2016-12-26T08:22:38.158Z,2032
2016-12-26T08:23:38.811Z,2076
2016-12-26T08:24:38.806Z,2104
2016-12-26T08:25:38.474Z,2140
2016-12-26T08:26:38.474Z,2172
2016-12-26T08:27:38.802Z,2220
2016-12-26T08:28:38.790Z,2264
2016-12-26T08:29:38.459Z,2268
2016-12-26T08:30:38.923Z,2304
2016-12-26T08:31:38.450Z,2312
2016-12-26T08:32:38.778Z,2312
2016-12-26T08:33:38.115Z,2324
2016-12-26T08:34:38.135Z,2332
2016-12-26T08:35:38.759Z,2336
2016-12-26T08:36:38.759Z,2336
2016-12-26T08:37:38.423Z,2308
2016-12-26T08:38:38.095Z,2312
2016-12-26T08:39:38.426Z,2288
2016-12-26T08:40:38.415Z,2268
2016-12-26T08:41:38.743Z,2284
2016-12-26T08:42:38.727Z,2272
2016-12-26T08:43:38.395Z,2236
2016-12-26T08:44:38.727Z,2232
2016-12-26T08:45:38.723Z,2256
2016-12-26T08:46:38.711Z,2280
2016-12-26T08:47:38.050Z,2280
2016-12-26T08:48:38.707Z,2272
2016-12-26T08:49:38.047Z,2256
2016-12-26T08:50:38.683Z,2272
2016-12-26T08:51:38.695Z,2344
2016-12-26T08:52:38.359Z,2372
2016-12-26T08:53:38.683Z,2340
2016-12-26T08:54:38.359Z,2328
2016-12-26T08:55:38.679Z,2336
2016-12-26T08:56:38.667Z,2300
2016-12-26T08:57:38.336Z,2272
2016-12-26T08:58:38.331Z,2224
2016-12-26T08:59:38.656Z,2184
2016-12-26T09:00:38.659Z,2156
2016-12-26T09:01:38.647Z,2120
2016-12-26T09:02:38.647Z,2112
2016-12-26T09:03:37.984Z,2088
2016-12-26T09:04:38.304Z,2080
2016-12-26T09:05:38.783Z,2048
2016-12-26T09:06:38.631Z,2012
2016-12-26T09:07:38.628Z,1976
2016-12-26T09:08:38.616Z,1964
2016-12-26T09:09:37.956Z,1944
2016-12-26T09:10:37.623Z,1932
2016-12-26T09:11:38.288Z,1912
2016-12-26T09:12:38.275Z,1900
2016-12-26T09:13:38.272Z,1892
2016-12-26T09:14:37.936Z,1888
2016-12-26T09:15:37.936Z,1876
2016-12-26T09:16:38.584Z,1856
2016-12-26T09:17:38.260Z,1824
2016-12-26T09:18:38.573Z,1808
2016-12-26T09:19:38.580Z,1780
2016-12-26T09:20:38.576Z,1756
2016-12-26T09:21:38.240Z,1744
2016-12-26T09:22:38.224Z,1756
2016-12-26T09:23:37.904Z,1752
2016-12-26T09:24:38.556Z,1732
2016-12-26T09:25:38.557Z,1756
2016-12-26T09:26:37.892Z,1764
2016-12-26T09:27:38.544Z,1768
2016-12-26T09:28:38.545Z,1784
2016-12-26T09:29:37.888Z,1792
2016-12-26T09:30:37.880Z,1780
2016-12-26T09:31:38.528Z,1728
2016-12-26T09:32:38.521Z,1700
2016-12-26T09:33:38.197Z,1684
2016-12-26T09:34:38.521Z,1672
2016-12-26T09:35:38.185Z,1668
2016-12-26T09:36:38.172Z,1700
2016-12-26T09:37:38.509Z,1716
2016-12-26T09:38:38.172Z,1744
2016-12-26T09:39:38.165Z,1788
2016-12-26T09:40:38.161Z,1804
2016-12-26T09:41:37.828Z,1832
2016-12-26T09:42:38.493Z,1856
2016-12-26T09:43:37.833Z,1912
2016-12-26T09:44:38.157Z,1924
2016-12-26T09:45:38.141Z,1928
2016-12-26T09:46:37.845Z,1956
2016-12-26T09:47:37.817Z,2000
2016-12-26T09:48:38.469Z,2044
2016-12-26T09:49:38.465Z,2068
2016-12-26T09:50:38.461Z,2088
2016-12-26T09:51:38.469Z,2104
2016-12-26T09:52:38.453Z,2124
2016-12-26T09:53:38.444Z,2140
2016-12-26T09:54:38.445Z,2144
2016-12-26T09:55:38.439Z,2160
2016-12-26T09:56:38.433Z,2172
2016-12-26T09:57:37.773Z,2172
2016-12-26T09:58:38.429Z,2188
2016-12-26T09:59:38.097Z,2184
2016-12-26T10:00:38.093Z,2184
2016-12-26T10:01:38.413Z,2180
2016-12-26T10:02:38.081Z,2168
2016-12-26T10:03:38.070Z,2164
2016-12-26T10:04:38.401Z,2160
2016-12-26T10:05:38.402Z,2160
2016-12-26T10:06:38.065Z,2148
2016-12-26T10:07:38.385Z,2128
2016-12-26T10:08:38.378Z,2104
2016-12-26T10:09:38.057Z,2068
2016-12-26T10:10:38.049Z,2052
2016-12-26T10:11:37.722Z,2040
2016-12-26T10:12:38.378Z,2016
2016-12-26T10:13:38.046Z,2000
2016-12-26T10:14:38.362Z,1988
2016-12-26T10:15:38.030Z,1972
2016-12-26T10:16:38.034Z,1928
2016-12-26T10:17:37.698Z,1908
2016-12-26T10:18:38.374Z,1900
2016-12-26T10:19:38.018Z,1900
2016-12-26T10:20:37.690Z,1884
2016-12-26T10:21:38.334Z,1848
2016-12-26T10:22:38.006Z,1840
2016-12-26T10:23:38.003Z,1836
2016-12-26T10:24:37.678Z,1836
2016-12-26T10:25:38.002Z,1784
2016-12-26T10:26:38.322Z,1772
2016-12-26T10:27:38.318Z,1756
2016-12-26T10:28:38.314Z,1736
2016-12-26T10:29:37.322Z,1728
2016-12-26T10:30:37.650Z,1728
2016-12-26T10:31:38.303Z,1652
2016-12-26T10:32:37.970Z,1684
2016-12-26T10:33:38.298Z,1704
2016-12-26T10:34:37.634Z,1732
2016-12-26T10:35:37.959Z,1728
2016-12-26T10:36:38.286Z,1712
2016-12-26T10:37:37.963Z,1700
2016-12-26T10:38:38.279Z,1684
2016-12-26T10:39:37.947Z,1680
2016-12-26T10:40:37.943Z,1668
2016-12-26T10:41:38.263Z,1656
2016-12-26T10:42:37.935Z,1664
2016-12-26T10:43:37.931Z,1648
2016-12-26T10:44:38.263Z,1660
2016-12-26T10:45:38.247Z,1652
2016-12-26T10:46:37.923Z,1648
2016-12-26T10:47:37.923Z,1660
2016-12-26T10:48:37.587Z,1688
2016-12-26T10:49:37.911Z,1692
2016-12-26T10:50:37.907Z,1712
2016-12-26T10:51:37.575Z,1712
2016-12-26T10:52:37.900Z,1684
2016-12-26T10:53:38.223Z,1704
2016-12-26T10:54:37.895Z,1696
2016-12-26T10:55:38.220Z,1664
2016-12-26T10:56:38.219Z,1672
2016-12-26T10:57:37.879Z,1688
2016-12-26T10:58:38.211Z,1704
2016-12-26T10:59:37.884Z,1716
2016-12-26T11:00:38.199Z,1712
2016-12-26T11:01:38.193Z,1716
2016-12-26T11:02:37.860Z,1708
2016-12-26T11:03:37.536Z,1732
2016-12-26T11:04:37.864Z,1740
2016-12-26T11:05:37.860Z,1740
2016-12-26T11:06:37.197Z,1740
2016-12-26T11:07:37.851Z,1736
2016-12-26T11:08:37.848Z,1728
2016-12-26T11:09:37.508Z,1728
2016-12-26T11:10:38.164Z,1732
2016-12-26T11:11:38.164Z,1740
2016-12-26T11:12:38.167Z,1756
2016-12-26T11:13:37.820Z,1764
2016-12-26T11:14:37.824Z,1780
2016-12-26T11:15:38.152Z,1788
2016-12-26T11:16:38.176Z,1796
2016-12-26T11:17:37.804Z,1804
2016-12-26T11:18:37.484Z,1804
2016-12-26T11:19:38.144Z,1796
2016-12-26T11:20:37.800Z,1836
2016-12-26T11:21:37.472Z,1844
2016-12-26T11:22:37.792Z,1848
2016-12-26T11:23:38.128Z,1836
2016-12-26T11:24:37.792Z,1816
2016-12-26T11:25:37.784Z,1804
2016-12-26T11:26:38.109Z,1776
2016-12-26T11:27:37.773Z,1768
2016-12-26T11:28:37.773Z,1768
2016-12-26T11:29:37.448Z,1760
2016-12-26T11:30:37.769Z,1752
2016-12-26T11:31:38.093Z,1760
2016-12-26T11:32:38.088Z,1768
2016-12-26T11:33:37.757Z,1768
2016-12-26T11:34:37.429Z,1760
2016-12-26T11:35:37.753Z,1748
2016-12-26T11:36:37.749Z,1732
2016-12-26T11:37:38.065Z,1740
2016-12-26T11:38:37.077Z,1756
2016-12-26T11:39:38.077Z,1756
2016-12-26T11:40:37.733Z,1732
2016-12-26T11:41:37.733Z,1760
2016-12-26T11:42:38.057Z,1804
2016-12-26T11:43:38.045Z,1856
2016-12-26T11:44:37.717Z,1900
2016-12-26T11:45:37.385Z,1940
2016-12-26T11:46:38.037Z,1972
2016-12-26T11:47:37.717Z,2004
2016-12-26T11:48:37.701Z,2040
2016-12-26T11:49:37.705Z,2064
2016-12-26T11:50:37.701Z,2008
2016-12-26T11:51:37.377Z,2148
2016-12-26T11:52:37.385Z,2220
2016-12-26T11:53:37.365Z,2260
2016-12-26T11:54:37.693Z,2348
2016-12-26T11:55:38.005Z,2388
2016-12-26T11:56:37.674Z,2596
2016-12-26T11:57:37.678Z,2652
2016-12-26T11:58:37.666Z,2888
2016-12-26T11:59:37.998Z,2968
2016-12-26T12:00:37.666Z,3112
2016-12-26T12:01:37.662Z,3128
2016-12-26T12:02:37.653Z,3128
2016-12-26T12:03:37.326Z,3052
2016-12-26T12:04:37.978Z,2888
2016-12-26T12:05:37.330Z,2856
2016-12-26T12:06:37.002Z,2724
2016-12-26T12:07:37.642Z,2596
2016-12-26T12:08:37.310Z,2496
2016-12-26T12:09:37.310Z,2492
2016-12-26T12:10:37.638Z,2480
2016-12-26T12:11:37.958Z,2304
2016-12-26T12:12:37.626Z,2172
2016-12-26T12:13:37.959Z,2120
2016-12-26T12:14:37.622Z,2120
2016-12-26T12:15:37.942Z,2200
2016-12-26T12:16:37.610Z,2232
2016-12-26T12:17:37.614Z,2224
2016-12-26T12:18:37.934Z,2184
2016-12-26T12:19:37.270Z,2112
2016-12-26T12:20:37.606Z,2020
2016-12-26T12:21:37.606Z,2012
2016-12-26T12:22:37.594Z,2000
2016-12-26T12:23:37.922Z,2032
2016-12-26T12:24:37.591Z,2040
2016-12-26T12:25:37.590Z,2096
2016-12-26T12:26:37.583Z,2084
2016-12-26T12:27:37.575Z,2160
2016-12-26T12:28:37.575Z,2132
2016-12-26T12:29:37.906Z,2104
2016-12-26T12:30:37.571Z,2192
2016-12-26T12:31:38.099Z,2280
2016-12-26T12:32:37.567Z,2356
2016-12-26T12:33:36.915Z,2576
2016-12-26T12:34:37.735Z,2776
2016-12-26T12:35:38.135Z,2788
2016-12-26T12:36:38.139Z,2744
2016-12-26T12:37:38.135Z,2772
2016-12-26T12:38:37.875Z,2716
2016-12-26T12:39:37.243Z,2652
2016-12-26T12:40:37.544Z,2536
2016-12-26T12:41:37.540Z,2416
2016-12-26T12:42:37.204Z,2228
2016-12-26T12:43:37.864Z,2088
2016-12-26T12:44:37.536Z,1988
2016-12-26T12:45:37.860Z,1936
2016-12-26T12:46:37.532Z,1896
2016-12-26T12:47:37.843Z,1856
2016-12-26T12:48:37.516Z,1808
2016-12-26T12:49:37.837Z,1744
2016-12-26T12:50:37.515Z,1704
2016-12-26T12:51:37.843Z,1684
2016-12-26T12:52:37.512Z,1608
2016-12-26T12:53:37.503Z,1532
2016-12-26T12:54:37.828Z,1500
2016-12-26T12:55:37.496Z,1452
2016-12-26T12:56:37.819Z,1392
2016-12-26T12:57:37.168Z,1412
2016-12-26T12:58:37.820Z,1488
2016-12-26T12:59:37.488Z,1544
2016-12-26T13:00:37.812Z,1592
2016-12-26T13:01:37.476Z,1748
2016-12-26T13:02:36.832Z,1896
2016-12-26T13:03:37.472Z,1856
2016-12-26T13:04:37.464Z,1796
2016-12-26T13:05:37.820Z,1904
2016-12-26T13:06:37.132Z,1872
2016-12-26T13:07:37.460Z,1860
2016-12-26T13:08:37.784Z,1820
2016-12-26T13:09:37.460Z,1724
2016-12-26T13:10:37.444Z,1704
2016-12-26T13:11:37.780Z,1760
2016-12-26T13:12:37.448Z,1908
2016-12-26T13:13:37.444Z,1968
2016-12-26T13:14:37.440Z,1952
2016-12-26T13:15:37.428Z,1988
2016-12-26T13:16:37.112Z,2000
2016-12-26T13:17:37.756Z,1924
2016-12-26T13:18:37.764Z,1884
2016-12-26T13:19:37.752Z,1856
2016-12-26T13:20:37.424Z,1820
2016-12-26T13:21:37.416Z,1816
2016-12-26T13:22:37.417Z,1684
2016-12-26T13:23:37.748Z,1608
2016-12-26T13:24:37.080Z,1560
2016-12-26T13:25:37.409Z,1616
2016-12-26T13:26:37.729Z,1672
2016-12-26T13:27:37.725Z,1760
2016-12-26T13:28:37.721Z,1740
2016-12-26T13:29:37.393Z,1808
2016-12-26T13:30:37.385Z,1776
2016-12-26T13:31:37.712Z,1804
2016-12-26T13:32:37.713Z,1820
2016-12-26T13:33:37.377Z,1796
2016-12-26T13:34:37.385Z,1684
2016-12-26T13:35:37.697Z,1540
2016-12-26T13:36:37.364Z,1428
2016-12-26T13:37:37.701Z,1316
2016-12-26T13:38:37.369Z,1220
2016-12-26T13:39:37.693Z,1120
2016-12-26T13:40:37.365Z,1128
2016-12-26T13:41:37.681Z,1184
2016-12-26T13:42:37.349Z,1160
2016-12-26T13:43:36.697Z,1120
2016-12-26T13:44:37.673Z,1140
2016-12-26T13:45:37.349Z,1104
2016-12-26T13:46:37.481Z,1056
2016-12-26T13:47:37.349Z,1032
2016-12-26T13:48:37.337Z,996
2016-12-26T13:49:37.665Z,976
2016-12-26T13:50:37.029Z,948
2016-12-26T13:51:37.330Z,924
2016-12-26T13:52:37.685Z,884
2016-12-26T13:53:37.649Z,864
2016-12-26T13:54:37.317Z,1020
2016-12-26T13:55:37.646Z,1140
2016-12-26T13:56:37.637Z,1308
2016-12-26T13:57:37.306Z,1396
2016-12-26T13:58:36.970Z,1368
2016-12-26T13:59:37.298Z,1520
2016-12-26T14:00:37.634Z,1636
2016-12-26T14:01:37.618Z,1632